createdAt,value
2023-06-11T00:02:22.851Z,99.90
2023-06-11T00:05:29.272Z,99.90
2023-06-11T00:08:31.150Z,99.90
2023-06-11T00:11:33.708Z,99.90
2023-06-11T00:14:35.528Z,99.90
2023-06-11T00:17:38.163Z,99.90
2023-06-11T00:20:41.721Z,99.90
2023-06-11T00:23:43.649Z,99.90
2023-06-11T00:26:45.457Z,99.90
2023-06-11T00:29:47.352Z,99.90
2023-06-11T00:32:49.434Z,99.90
2023-06-11T00:35:51.247Z,99.90
2023-06-11T00:38:52.985Z,99.90
2023-06-11T00:41:54.929Z,99.90
2023-06-11T00:44:56.836Z,99.90
2023-06-11T00:47:58.748Z,99.90
2023-06-11T00:51:00.642Z,99.90
2023-06-11T00:54:02.428Z,99.90
2023-06-11T00:57:04.464Z,99.90
2023-06-11T01:00:12.668Z,99.90
2023-06-11T01:03:19.227Z,99.90
2023-06-11T01:06:25.707Z,99.90
2023-06-11T01:09:30.541Z,99.90
2023-06-11T01:12:32.963Z,99.90
2023-06-11T01:15:34.826Z,99.90
2023-06-11T01:18:48.081Z,99.90
2023-06-11T01:21:57.229Z,99.90
2023-06-11T01:25:24.501Z,99.90
2023-06-11T01:28:32.042Z,99.90
2023-06-11T01:31:38.807Z,99.90
2023-06-11T01:34:42.750Z,99.90
2023-06-11T01:37:56.471Z,99.90
2023-06-11T01:41:03.132Z,99.90
2023-06-11T01:44:05.538Z,99.90
2023-06-11T01:47:07.658Z,99.90
2023-06-11T01:50:09.863Z,99.90
2023-06-11T01:53:13.797Z,99.90
2023-06-11T01:56:15.956Z,99.90
2023-06-11T01:59:18.960Z,99.90
2023-06-11T02:02:21.078Z,99.90
2023-06-11T02:05:23.125Z,99.90
2023-06-11T02:08:25.023Z,99.90
2023-06-11T02:11:26.955Z,99.90
2023-06-11T02:14:28.702Z,99.90
2023-06-11T02:17:30.501Z,99.90
2023-06-11T02:20:32.249Z,99.90
2023-06-11T02:23:34.029Z,99.90
2023-06-11T02:26:36.037Z,99.90
2023-06-11T02:29:37.929Z,99.90
2023-06-11T02:41:26.197Z,99.90
2023-06-11T02:44:28.171Z,99.90
2023-06-11T02:47:30.375Z,99.90
2023-06-11T02:50:32.271Z,99.90
2023-06-11T02:53:34.048Z,99.90
2023-06-11T02:56:35.913Z,99.90
2023-06-11T02:59:37.684Z,99.90
2023-06-11T03:02:40.110Z,99.90
2023-06-11T03:05:42.364Z,99.90
2023-06-11T03:08:44.404Z,99.90
2023-06-11T03:11:46.220Z,99.90
2023-06-11T03:14:47.987Z,99.90
2023-06-11T03:17:50.370Z,99.90
2023-06-11T03:20:52.438Z,99.90
2023-06-11T03:23:54.287Z,99.90
2023-06-11T03:26:56.905Z,99.90
2023-06-11T03:29:58.948Z,99.90
2023-06-11T03:33:01.698Z,99.90
2023-06-11T03:36:03.949Z,99.90
2023-06-11T03:39:05.904Z,99.90
2023-06-11T03:42:07.963Z,99.90
2023-06-11T03:45:10.979Z,99.90
2023-06-11T03:48:13.174Z,99.90
2023-06-11T03:51:16.007Z,99.90
2023-06-11T03:54:18.183Z,99.90
2023-06-11T03:57:19.947Z,99.90
2023-06-11T04:00:23.088Z,99.90
2023-06-11T04:03:25.584Z,99.90
2023-06-11T04:06:28.600Z,99.90
2023-06-11T04:09:30.651Z,99.90
2023-06-11T04:12:32.445Z,99.90
2023-06-11T04:18:58.573Z,99.90
2023-06-11T04:22:00.907Z,99.90
2023-06-11T04:25:02.915Z,99.90
2023-06-11T04:28:07.253Z,99.90
2023-06-11T04:31:12.944Z,99.90
2023-06-11T04:34:18.143Z,99.90
2023-06-11T04:37:21.058Z,99.90
2023-06-11T04:44:02.065Z,99.90
2023-06-11T04:47:06.460Z,99.90
2023-06-11T04:50:10.508Z,99.90
2023-06-11T04:53:14.211Z,99.90
2023-06-11T05:03:40.735Z,99.90
2023-06-11T05:06:47.097Z,99.90
2023-06-11T05:09:53.330Z,99.90
2023-06-11T05:12:55.583Z,99.90
2023-06-11T05:19:35.569Z,99.90
2023-06-11T05:22:38.638Z,99.90
2023-06-11T05:25:47.839Z,99.90
2023-06-11T05:28:52.610Z,99.90
2023-06-11T05:31:57.395Z,99.90
2023-06-11T05:34:59.540Z,99.90
2023-06-11T05:38:04.769Z,99.90
2023-06-11T05:41:06.859Z,99.90
2023-06-11T05:44:09.700Z,99.90
2023-06-11T05:47:12.564Z,99.90
2023-06-11T05:50:14.782Z,99.90
2023-06-11T05:53:16.794Z,99.90
2023-06-11T05:56:18.644Z,99.90
2023-06-11T05:59:20.518Z,99.90
2023-06-11T06:09:31.275Z,99.90
2023-06-11T06:12:34.491Z,99.90
2023-06-11T06:22:51.625Z,99.90
2023-06-11T06:25:53.626Z,99.90
2023-06-11T06:28:55.832Z,99.90
2023-06-11T06:31:58.270Z,99.90
2023-06-11T06:35:01.148Z,99.90
2023-06-11T06:44:57.075Z,99.90
2023-06-11T06:47:59.726Z,99.90
2023-06-11T07:01:36.076Z,99.90
2023-06-11T07:04:48.321Z,99.90
2023-06-11T07:07:55.160Z,97.70
2023-06-11T07:24:51.361Z,94.50
2023-06-11T07:27:54.563Z,95.40
2023-06-11T07:30:56.945Z,95.30
2023-06-11T07:37:12.062Z,95.70
2023-06-11T07:43:52.332Z,94.00
2023-06-11T07:46:58.180Z,93.40
2023-06-11T07:50:05.246Z,92.20
2023-06-11T07:53:15.709Z,92.10
2023-06-11T08:10:16.497Z,90.30
2023-06-11T08:20:49.268Z,84.30
2023-06-11T08:38:58.938Z,81.00
2023-06-11T08:52:29.988Z,73.60
2023-06-11T09:06:21.638Z,75.60
2023-06-11T09:27:00.403Z,67.10
2023-06-11T09:30:20.517Z,68.30
2023-06-11T09:33:24.066Z,67.20
2023-06-11T09:36:27.237Z,68.60
2023-06-11T09:39:29.919Z,69.40
2023-06-11T09:42:39.494Z,64.90
2023-06-11T09:45:42.443Z,63.80
2023-06-11T09:48:47.966Z,61.40
2023-06-11T09:51:51.273Z,64.40
2023-06-11T09:54:54.564Z,64.10
2023-06-11T09:57:58.069Z,64.40
2023-06-11T10:01:07.168Z,63.20
2023-06-11T10:04:09.722Z,64.20
2023-06-11T10:07:12.597Z,60.90
2023-06-11T10:10:18.872Z,58.50
2023-06-11T10:13:35.856Z,57.90
2023-06-11T10:16:38.132Z,58.40
2023-06-11T10:19:41.260Z,61.50
2023-06-11T10:22:45.605Z,56.40
2023-06-11T10:25:59.839Z,58.20
2023-06-11T10:29:05.501Z,58.30
2023-06-11T10:32:24.103Z,58.20
2023-06-11T10:35:33.447Z,53.60
2023-06-11T10:38:42.142Z,55.60
2023-06-11T10:41:44.733Z,52.70
2023-06-11T10:44:47.196Z,57.00
2023-06-11T10:47:55.685Z,53.20
2023-06-11T10:54:33.785Z,51.40
2023-06-11T10:57:35.672Z,52.90
2023-06-11T11:00:38.553Z,52.70
2023-06-11T11:14:34.928Z,54.60
2023-06-11T11:34:58.234Z,53.60
2023-06-11T11:38:00.029Z,56.40
2023-06-11T11:44:47.358Z,56.90
2023-06-11T11:48:05.037Z,58.10
2023-06-11T11:58:24.046Z,56.90
2023-06-11T12:01:38.467Z,60.00
2023-06-11T12:21:41.029Z,55.30
2023-06-11T12:24:42.899Z,55.50
2023-06-11T12:27:45.546Z,55.70
2023-06-11T12:41:07.408Z,52.20
2023-06-11T12:44:09.158Z,50.40
2023-06-11T12:47:10.986Z,50.10
2023-06-11T12:57:28.095Z,49.20
2023-06-11T13:00:31.271Z,49.10
2023-06-11T13:07:11.820Z,50.90
2023-06-11T13:10:29.424Z,48.30
2023-06-11T13:16:55.790Z,49.10
2023-06-11T13:19:57.640Z,49.10
2023-06-11T13:22:59.470Z,48.60
2023-06-11T13:26:01.761Z,48.40
2023-06-11T13:29:03.875Z,48.50
2023-06-11T13:32:06.236Z,47.50
2023-06-11T13:42:23.124Z,48.60
2023-06-11T13:48:50.130Z,46.70
2023-06-11T13:55:04.983Z,47.00
2023-06-11T13:58:07.574Z,47.30
2023-06-11T14:01:09.722Z,48.10
2023-06-11T14:04:15.030Z,47.80
2023-06-11T14:07:17.171Z,45.60
2023-06-11T14:10:19.734Z,46.90
2023-06-11T14:13:21.529Z,45.80
2023-06-11T14:16:23.381Z,47.80
2023-06-11T14:19:25.135Z,46.20
2023-06-11T14:22:26.832Z,45.00
2023-06-11T14:28:47.171Z,44.70
2023-06-11T14:31:49.221Z,46.70
2023-06-11T14:34:59.309Z,47.80
2023-06-11T14:38:04.096Z,46.00
2023-06-11T14:41:09.062Z,46.80
2023-06-11T14:44:12.239Z,47.00
2023-06-11T14:47:15.553Z,47.50
2023-06-11T14:50:17.499Z,46.90
2023-06-11T14:53:22.492Z,44.90
2023-06-11T14:56:24.502Z,47.10
2023-06-11T14:59:29.175Z,46.60
2023-06-11T15:02:37.012Z,46.70
2023-06-11T15:05:40.558Z,47.20
2023-06-11T15:08:45.045Z,45.50
2023-06-11T15:11:47.382Z,45.80
2023-06-11T15:14:52.172Z,45.90
2023-06-11T15:17:54.180Z,46.10
2023-06-11T15:20:59.641Z,46.80
2023-06-11T15:24:01.646Z,44.20
2023-06-11T15:27:04.080Z,44.90
2023-06-11T15:30:07.674Z,44.70
2023-06-11T15:33:09.740Z,44.00
2023-06-11T15:36:14.589Z,44.30
2023-06-11T15:39:19.283Z,44.10
2023-06-11T15:42:21.491Z,43.70
2023-06-11T15:45:23.722Z,42.20
2023-06-11T15:48:26.171Z,40.90
2023-06-11T15:51:30.321Z,41.60
2023-06-11T15:54:37.764Z,40.70
2023-06-11T15:57:42.968Z,41.10
2023-06-11T16:00:45.850Z,40.80
2023-06-11T16:03:47.962Z,40.40
2023-06-11T16:06:53.009Z,41.60
2023-06-11T16:09:56.283Z,41.60
2023-06-11T16:12:58.346Z,40.70
2023-06-11T16:16:00.597Z,39.30
2023-06-11T16:19:05.981Z,40.10
2023-06-11T16:22:12.346Z,39.30
2023-06-11T16:25:15.778Z,38.30
2023-06-11T16:28:18.621Z,38.40
2023-06-11T16:31:20.825Z,38.60
2023-06-11T16:34:25.693Z,39.90
2023-06-11T16:37:30.636Z,37.30
2023-06-11T16:40:35.346Z,36.40
2023-06-11T16:43:37.284Z,36.00
2023-06-11T16:46:39.521Z,37.10
2023-06-11T16:49:42.260Z,38.70
2023-06-11T16:52:46.176Z,35.80
2023-06-11T16:55:50.023Z,37.10
2023-06-11T16:58:55.394Z,35.60
2023-06-11T17:01:57.544Z,36.70
2023-06-11T17:04:59.463Z,38.40
2023-06-11T17:08:06.827Z,37.10
2023-06-11T17:11:11.856Z,37.30
2023-06-11T17:14:13.862Z,36.50
2023-06-11T17:17:20.398Z,38.40
2023-06-11T17:20:24.425Z,35.70
2023-06-11T17:23:26.370Z,35.80
2023-06-11T17:26:31.518Z,36.40
2023-06-11T17:29:34.559Z,37.00
2023-06-11T17:32:36.810Z,37.00
2023-06-11T17:35:39.744Z,36.80
2023-06-11T17:38:42.342Z,37.20
2023-06-11T17:41:45.727Z,38.80
2023-06-11T17:44:51.094Z,38.10
2023-06-11T17:48:11.385Z,39.30
2023-06-11T17:51:14.412Z,39.70
2023-06-11T17:54:18.255Z,39.60
2023-06-11T17:57:21.751Z,38.50
2023-06-11T18:00:23.961Z,39.80
2023-06-11T18:03:26.884Z,39.30
2023-06-11T18:06:28.839Z,39.20
2023-06-11T18:09:31.429Z,41.30
2023-06-11T18:12:33.441Z,40.70
2023-06-11T18:15:40.805Z,40.60
2023-06-11T18:18:44.299Z,40.70
2023-06-11T18:21:48.833Z,39.30
2023-06-11T18:24:53.786Z,40.70
2023-06-11T18:28:00.294Z,41.20
2023-06-11T18:31:02.867Z,41.10
2023-06-11T18:34:05.106Z,41.20
2023-06-11T18:37:12.885Z,41.80
2023-06-11T18:40:15.099Z,44.30
2023-06-11T18:43:20.516Z,42.70
2023-06-11T18:46:26.269Z,43.00
2023-06-11T18:49:30.418Z,43.70
2023-06-11T18:52:37.290Z,44.20
2023-06-11T18:55:39.231Z,44.10
2023-06-11T18:58:50.042Z,44.70
2023-06-11T19:01:52.404Z,53.30
2023-06-11T19:05:02.952Z,49.80
2023-06-11T19:08:07.375Z,51.40
2023-06-11T19:11:12.183Z,55.60
2023-06-11T19:14:19.744Z,52.60
2023-06-11T19:17:23.888Z,56.50
2023-06-11T19:20:59.696Z,54.70
2023-06-11T19:24:04.871Z,54.80
2023-06-11T19:27:14.603Z,51.50
2023-06-11T19:30:18.074Z,58.10
2023-06-11T19:33:20.010Z,55.90
2023-06-11T19:36:23.386Z,56.20
2023-06-11T19:39:28.062Z,57.20
2023-06-11T19:42:30.645Z,57.90
2023-06-11T19:45:35.329Z,59.50
2023-06-11T19:48:45.687Z,59.30
2023-06-11T19:51:47.818Z,59.60
2023-06-11T19:54:52.285Z,58.40
2023-06-11T19:57:56.825Z,61.80
2023-06-11T20:01:10.558Z,61.30
2023-06-11T20:04:12.584Z,61.90
2023-06-11T20:17:19.215Z,62.90
2023-06-11T20:20:21.039Z,62.50
2023-06-11T20:23:22.844Z,64.60
2023-06-11T20:26:24.640Z,61.30
2023-06-11T20:29:26.496Z,65.10
2023-06-11T20:32:28.344Z,64.10
2023-06-11T20:35:30.158Z,65.80
2023-06-11T20:38:31.923Z,65.80
2023-06-11T20:41:34.675Z,68.80
2023-06-11T20:44:36.615Z,67.30
2023-06-11T20:47:38.628Z,69.20
2023-06-11T20:50:40.638Z,67.00
2023-06-11T20:53:42.418Z,68.70
2023-06-11T20:56:46.386Z,70.80
2023-06-11T20:59:48.656Z,72.80
2023-06-11T21:02:54.881Z,68.30
2023-06-11T21:06:01.354Z,71.10
2023-06-11T21:09:03.405Z,69.30
2023-06-11T21:12:05.943Z,68.80
2023-06-11T21:15:14.340Z,67.10
2023-06-11T21:18:16.532Z,68.20
2023-06-11T21:21:18.894Z,70.00
2023-06-11T21:24:26.951Z,69.30
2023-06-11T21:27:28.821Z,69.30
2023-06-11T21:30:37.977Z,68.60
2023-06-11T21:33:40.667Z,69.30
2023-06-11T21:36:45.677Z,68.50
2023-06-11T21:39:48.517Z,68.90
2023-06-11T21:42:51.034Z,70.60
2023-06-11T21:46:00.063Z,69.60
2023-06-11T21:49:04.346Z,70.70
2023-06-11T21:52:08.099Z,70.70
2023-06-11T21:55:10.077Z,71.50
2023-06-11T21:58:15.170Z,69.80
2023-06-11T22:01:17.366Z,70.40
2023-06-11T22:04:19.347Z,72.20
2023-06-11T22:07:22.364Z,71.20
2023-06-11T22:10:24.460Z,73.40
2023-06-11T22:13:26.212Z,72.20
2023-06-11T22:16:29.026Z,72.60
2023-06-11T22:19:32.331Z,74.60
2023-06-11T22:22:38.898Z,74.70
2023-06-11T22:25:40.735Z,73.40
2023-06-11T22:28:42.503Z,71.80
2023-06-11T22:31:44.353Z,73.80
2023-06-11T22:34:46.213Z,75.90
2023-06-11T22:37:48.095Z,74.00
2023-06-11T22:40:49.910Z,74.90
2023-06-11T22:43:51.802Z,73.40
2023-06-11T22:46:53.644Z,72.60
2023-06-11T22:49:58.272Z,71.80
2023-06-11T22:53:00.588Z,73.90
2023-06-11T22:56:02.907Z,73.50
2023-06-11T22:59:04.773Z,75.20
2023-06-11T23:02:06.686Z,75.30
2023-06-11T23:05:09.000Z,75.70
2023-06-11T23:08:10.979Z,77.20
2023-06-11T23:11:12.739Z,80.30
2023-06-11T23:14:16.094Z,81.80
2023-06-11T23:17:20.503Z,81.40
2023-06-11T23:20:28.234Z,82.50
2023-06-11T23:23:33.467Z,82.10
2023-06-11T23:26:35.283Z,82.10
2023-06-11T23:29:37.277Z,79.70
2023-06-11T23:32:39.046Z,80.20
2023-06-11T23:35:41.504Z,85.60
2023-06-11T23:38:44.209Z,77.00
2023-06-11T23:41:46.212Z,78.30
2023-06-11T23:44:48.002Z,78.80
2023-06-11T23:47:49.877Z,85.90
2023-06-11T23:50:51.775Z,86.00
2023-06-11T23:53:53.816Z,86.80
2023-06-11T23:56:55.682Z,84.60
2023-06-11T23:59:57.442Z,83.90
